Time;durP1;ratioP1;P1;durP2;ratioP2;P2;SDS_P1;SDS_P2;PMS_P1;PMS_P2;Temp;Humidity;BMP_temperature;BMP_pressure;BME280_temperature;BME280_humidity;BME280_pressure;Samples;Min_cycle;Max_cycle;Signal;HPM_P1;HPM_P2
2022/08/08 00:00:18;;;;;;;6.80;5.80;;;;;;;26.11;43.88;100465.64;116798;1184;24296;-65
2022/08/08 00:03:09;;;;;;;6.80;5.40;;;;;;;26.07;43.94;100469.36;116808;1186;23046;-66
2022/08/08 00:06:10;;;;;;;9.00;5.80;;;;;;;26.03;44.04;100471.70;116823;1186;22621;-58
2022/08/08 00:08:43;;;;;;;7.40;5.90;;;;;;;25.96;44.15;100468.63;116943;1178;23018;-58
2022/08/08 00:11:20;;;;;;;6.60;5.50;;;;;;;25.90;44.18;100468.66;117046;1189;22104;-66
2022/08/08 00:13:56;;;;;;;15.90;5.50;;;;;;;25.86;44.37;100468.27;117043;1189;22984;-57
2022/08/08 00:16:57;;;;;;;9.40;6.00;;;;;;;25.83;44.37;100468.64;116832;1189;22932;-57
2022/08/08 00:19:57;;;;;;;10.80;6.90;;;;;;;25.80;44.45;100469.04;116895;1189;23652;-57
2022/08/08 00:22:27;;;;;;;9.70;6.10;;;;;;;25.78;44.52;100471.02;116782;1189;23478;-66
2022/08/08 00:24:59;;;;;;;7.70;6.00;;;;;;;25.76;44.64;100475.14;116913;1186;21901;-57
2022/08/08 00:27:26;;;;;;;6.90;6.20;;;;;;;25.73;44.72;100471.96;116909;1186;23001;-66
2022/08/08 00:30:06;;;;;;;7.90;5.60;;;;;;;25.70;44.70;100476.27;116799;1192;21851;-66
2022/08/08 00:32:50;;;;;;;7.00;6.20;;;;;;;25.62;44.86;100471.99;117056;1187;22990;-66
2022/08/08 00:35:55;;;;;;;6.80;5.90;;;;;;;25.56;44.97;100470.09;117048;1189;23767;-66
2022/08/08 00:38:36;;;;;;;9.10;6.40;;;;;;;25.49;45.00;100470.27;117075;1186;23043;-67
2022/08/08 00:41:33;;;;;;;7.30;6.20;;;;;;;25.46;45.09;100467.77;117006;1188;21863;-63
2022/08/08 00:44:26;;;;;;;8.60;6.00;;;;;;;25.45;45.30;100470.02;116955;1186;23033;-66
2022/08/08 00:47:12;;;;;;;7.80;6.40;;;;;;;25.40;45.34;100474.13;116990;1186;22977;-58
2022/08/08 00:50:33;;;;;;;7.20;5.70;;;;;;;25.33;45.53;100475.52;117067;1189;22918;-66
2022/08/08 00:53:02;;;;;;;6.60;5.90;;;;;;;25.25;45.57;100476.96;116678;1189;23021;-58
2022/08/08 00:55:42;;;;;;;7.70;6.40;;;;;;;25.21;45.87;100479.09;116927;1191;21859;-57
2022/08/08 00:58:40;;;;;;;6.80;6.10;;;;;;;25.21;45.90;100478.91;117004;1189;21858;-66
2022/08/08 01:01:18;;;;;;;8.30;6.80;;;;;;;25.18;45.96;100477.67;116960;1191;21869;-66
2022/08/08 01:04:28;;;;;;;8.00;6.50;;;;;;;25.14;46.13;100477.63;117033;1188;23709;-57
2022/08/08 01:07:26;;;;;;;7.20;6.50;;;;;;;25.14;46.16;100477.13;116923;1189;22171;-57
2022/08/08 01:10:32;;;;;;;8.70;6.20;;;;;;;25.11;46.34;100476.26;117072;1186;22036;-57
2022/08/08 01:13:37;;;;;;;8.80;7.20;;;;;;;25.06;46.50;100477.31;116996;1186;24184;-57
2022/08/08 01:16:22;;;;;;;;;;;;;;;25.03;46.47;100482.56;116909;1189;23432;-64
2022/08/08 01:19:23;;;;;;;8.50;6.40;;;;;;;25.02;46.56;100479.56;117076;1189;23038;-57
2022/08/08 01:22:35;;;;;;;9.20;7.00;;;;;;;25.00;46.56;100478.10;116987;1188;21855;-57
2022/08/08 01:25:15;;;;;;;9.30;6.60;;;;;;;24.98;46.54;100481.11;117045;1188;22929;-57
2022/08/08 01:27:56;;;;;;;8.10;6.50;;;;;;;24.98;46.79;100480.35;116979;1188;22991;-57
2022/08/08 01:30:58;;;;;;;7.30;6.00;;;;;;;24.93;46.90;100484.88;117041;1191;21866;-57
2022/08/08 01:33:53;;;;;;;8.20;6.90;;;;;;;24.88;47.07;100488.08;116916;1189;21870;-57
2022/08/08 01:37:04;;;;;;;8.10;6.70;;;;;;;24.86;46.97;100491.29;116811;1189;22991;-57
2022/08/08 01:40:10;;;;;;;6.70;5.90;;;;;;;24.79;47.18;100492.66;117002;1189;21858;-57
2022/08/08 01:42:52;;;;;;;7.50;6.20;;;;;;;24.77;47.31;100494.77;116890;1188;22241;-57
2022/08/08 01:45:28;;;;;;;12.00;6.70;;;;;;;24.75;47.28;100498.29;117002;1186;22940;-66
2022/08/08 01:48:04;;;;;;;10.10;7.00;;;;;;;24.74;47.37;100498.02;117064;1185;23566;-57
2022/08/08 01:50:51;;;;;;;9.00;7.20;;;;;;;24.71;47.58;100499.34;116959;1186;21856;-66
2022/08/08 01:53:43;;;;;;;8.20;6.00;;;;;;;24.64;47.49;100503.35;117083;1189;22912;-57
2022/08/08 01:57:05;;;;;;;7.70;6.40;;;;;;;24.63;47.61;100501.13;117107;1186;22901;-66
2022/08/08 01:59:48;;;;;;;8.10;6.40;;;;;;;24.61;47.66;100504.23;116750;1191;23001;-66
2022/08/08 02:02:49;;;;;;;7.90;6.60;;;;;;;24.59;47.81;100506.22;116985;1185;21854;-66
2022/08/08 02:05:57;;;;;;;7.50;6.80;;;;;;;24.55;47.87;100508.60;117030;1189;23000;-58
2022/08/08 02:08:33;;;;;;;7.50;6.70;;;;;;;24.51;47.94;100511.81;117006;1189;21842;-66
2022/08/08 02:11:09;;;;;;;7.70;6.60;;;;;;;24.47;48.09;100512.43;116999;1188;23008;-65
2022/08/08 02:14:04;;;;;;;7.20;6.50;;;;;;;24.44;48.16;100518.54;117073;1186;24290;-56
2022/08/08 02:16:34;;;;;;;8.60;6.60;;;;;;;24.43;48.20;100524.19;117153;1186;22947;-56
2022/08/08 02:19:13;;;;;;;7.90;7.10;;;;;;;24.42;48.13;100523.75;116992;1188;21983;-66
2022/08/08 02:24:59;;;;;;;7.70;6.60;;;;;;;24.40;48.23;100523.45;117098;1188;23474;-57
2022/08/08 02:28:03;;;;;;;7.00;6.20;;;;;;;24.38;48.44;100525.76;117081;1186;23052;-56
2022/08/08 02:30:55;;;;;;;8.10;6.80;;;;;;;24.35;48.45;100525.77;116978;1187;23014;-66
2022/08/08 02:33:58;;;;;;;7.50;6.40;;;;;;;24.31;48.43;100527.98;117003;1188;23045;-60
2022/08/08 02:36:41;;;;;;;9.30;6.70;;;;;;;24.32;48.69;100529.55;116980;1190;21904;-59
2022/08/08 02:39:11;;;;;;;7.80;6.30;;;;;;;24.27;48.82;100534.74;117053;1188;22946;-66
2022/08/08 02:42:13;;;;;;;9.60;7.00;;;;;;;24.21;48.84;100536.20;117057;1186;22988;-66
2022/08/08 02:44:46;;;;;;;12.30;6.80;;;;;;;24.17;48.89;100537.89;116983;1188;24729;-66
2022/08/08 02:47:45;;;;;;;7.60;6.20;;;;;;;24.13;49.03;100541.20;116999;1189;21883;-59
2022/08/08 02:50:39;;;;;;;10.20;6.50;;;;;;;24.10;49.32;100541.98;116920;1188;22062;-59
2022/08/08 02:53:30;;;;;;;14.30;6.90;;;;;;;24.07;49.15;100544.14;117056;1188;21868;-66
2022/08/08 02:56:25;;;;;;;9.60;6.80;;;;;;;24.03;49.48;100546.39;117118;1189;21848;-65
2022/08/08 02:59:42;;;;;;;8.00;7.20;;;;;;;24.00;49.52;100545.34;116969;1187;23618;-66
2022/08/08 03:03:07;;;;;;;8.80;7.10;;;;;;;23.97;49.54;100548.50;116990;1183;21852;-59
2022/08/08 03:05:58;;;;;;;8.00;7.00;;;;;;;23.97;49.55;100549.59;117037;1186;23916;-59
2022/08/08 03:08:45;;;;;;;15.20;7.90;;;;;;;23.96;49.69;100549.66;116996;1188;21842;-66
2022/08/08 03:12:05;;;;;;;12.80;6.50;;;;;;;23.96;49.65;100552.33;117007;1183;23526;-59
2022/08/08 03:15:01;;;;;;;9.70;7.30;;;;;;;23.94;49.91;100558.91;116823;1191;22931;-65
2022/08/08 03:18:47;;;;;;;8.20;7.10;;;;;;;23.90;50.04;100563.30;116860;1186;21857;-66
2022/08/08 03:21:17;;;;;;;7.40;6.60;;;;;;;23.89;50.14;100565.89;116657;1191;21945;-66
2022/08/08 03:23:52;;;;;;;12.80;7.20;;;;;;;23.91;50.34;100562.36;117061;1191;21876;-59
2022/08/08 03:26:29;;;;;;;9.70;7.50;;;;;;;23.92;50.29;100567.98;116951;1188;22928;-59
2022/08/08 03:28:59;;;;;;;;;;;;;;;23.94;50.50;100571.65;117005;1191;22130;-59
2022/08/08 03:34:34;;;;;;;8.30;7.50;;;;;;;24.02;50.49;100574.58;116807;1188;21873;-65
2022/08/08 03:37:09;;;;;;;11.80;6.80;;;;;;;24.05;50.82;100578.67;117116;1188;22896;-66
2022/08/08 03:39:59;;;;;;;7.90;7.10;;;;;;;24.09;50.98;100579.67;117122;1188;21885;-59
2022/08/08 03:42:29;;;;;;;9.00;7.10;;;;;;;24.12;50.98;100580.69;116980;1188;22150;-66
2022/08/08 03:44:57;;;;;;;8.00;6.90;;;;;;;24.18;50.98;100578.75;116998;1188;22924;-64
2022/08/08 03:47:25;;;;;;;8.00;6.70;;;;;;;24.22;50.84;100581.31;117045;1186;22879;-59
2022/08/08 03:50:16;;;;;;;11.50;7.60;;;;;;;24.27;50.89;100583.67;116979;1188;21862;-59
2022/08/08 03:52:46;;;;;;;7.80;7.00;;;;;;;24.36;50.86;100587.21;118922;1186;21833;-64
2022/08/08 03:55:15;;;;;;;7.50;6.50;;;;;;;24.43;50.97;100590.89;119128;1185;21783;-59
2022/08/08 03:58:02;;;;;;;10.80;7.00;;;;;;;24.50;50.99;100596.32;119082;1182;21777;-60
2022/08/08 04:00:51;;;;;;;9.20;6.60;;;;;;;24.56;51.01;100596.85;119045;1187;22230;-67
2022/08/08 04:03:38;;;;;;;7.80;6.90;;;;;;;24.61;51.08;100596.28;116917;1184;21847;-66
2022/08/08 04:06:24;;;;;;;11.40;7.10;;;;;;;24.69;51.07;100595.25;116856;1186;21888;-66
2022/08/08 04:08:56;;;;;;;12.00;8.10;;;;;;;24.75;51.07;100598.43;116854;1188;23138;-66
2022/08/08 04:11:32;;;;;;;9.10;7.50;;;;;;;24.80;51.24;100597.71;116923;1188;22322;-59
2022/08/08 04:14:19;;;;;;;7.80;7.00;;;;;;;24.85;51.29;100601.53;117004;1187;22732;-59
2022/08/08 04:17:01;;;;;;;9.30;7.60;;;;;;;24.91;51.18;100604.16;117027;1189;23455;-66
2022/08/08 04:19:30;;;;;;;7.60;6.60;;;;;;;24.96;51.17;100602.00;117016;1188;21902;-66
2022/08/08 04:22:03;;;;;;;7.70;7.00;;;;;;;25.03;51.12;100605.83;116963;1186;21845;-59
2022/08/08 04:24:30;;;;;;;9.00;7.10;;;;;;;25.14;51.04;100608.68;117038;1186;23498;-66
2022/08/08 04:26:58;;;;;;;8.70;7.80;;;;;;;25.20;51.11;100608.81;117065;1188;23474;-66
2022/08/08 04:29:26;;;;;;;10.90;7.40;;;;;;;25.27;51.18;100609.78;117015;1186;22963;-66
2022/08/08 04:32:07;;;;;;;10.10;7.30;;;;;;;25.34;51.02;100613.40;116978;1188;21853;-59
2022/08/08 04:34:36;;;;;;;8.60;7.10;;;;;;;25.43;51.20;100617.44;117020;1189;22920;-59
2022/08/08 04:37:21;;;;;;;7.90;7.10;;;;;;;25.53;50.98;100615.90;117003;1188;21921;-59
2022/08/08 04:39:58;;;;;;;7.50;6.80;;;;;;;25.61;51.01;100617.23;117075;1187;23626;-60
2022/08/08 04:42:34;;;;;;;9.00;7.00;;;;;;;25.72;50.94;100624.02;117063;1188;23455;-60
2022/08/08 04:45:04;;;;;;;8.70;7.60;;;;;;;25.78;50.90;100626.64;117079;1189;21896;-59
2022/08/08 04:47:31;;;;;;;11.50;7.70;;;;;;;25.85;50.87;100628.43;117043;1186;22543;-67
2022/08/08 04:50:12;;;;;;;12.90;7.30;;;;;;;26.00;50.82;100631.02;116958;1189;21850;-67
2022/08/08 04:52:52;;;;;;;10.40;7.10;;;;;;;26.16;50.74;100635.06;116991;1187;22151;-67
2022/08/08 04:55:31;;;;;;;8.80;7.10;;;;;;;26.31;50.58;100635.42;117014;1189;21910;-59
2022/08/08 04:58:18;;;;;;;8.00;7.10;;;;;;;26.43;50.58;100635.23;117027;1185;22661;-67
2022/08/08 05:00:47;;;;;;;7.90;6.80;;;;;;;26.55;50.44;100634.18;116987;1188;21940;-59
2022/08/08 05:03:17;;;;;;;8.90;7.10;;;;;;;26.66;50.38;100633.89;117094;1185;23475;-67
2022/08/08 05:06:04;;;;;;;8.70;6.40;;;;;;;26.81;50.23;100633.49;117003;1185;23704;-67
2022/08/08 05:08:44;;;;;;;11.10;7.10;;;;;;;26.94;50.17;100632.27;117069;1188;22021;-59
2022/08/08 05:11:12;;;;;;;9.00;6.60;;;;;;;27.07;49.98;100628.45;116999;1187;23378;-59
2022/08/08 05:13:51;;;;;;;9.50;6.30;;;;;;;27.18;49.85;100628.60;119136;1187;21802;-66
2022/08/08 05:16:26;;;;;;;7.30;6.60;;;;;;;27.35;49.66;100626.06;119112;1187;21778;-67
2022/08/08 05:19:13;;;;;;;9.10;6.50;;;;;;;27.49;49.45;100623.20;118922;1186;21709;-67
2022/08/08 05:22:00;;;;;;;8.60;6.00;;;;;;;27.64;49.35;100630.13;119078;1186;21713;-60
2022/08/08 05:24:27;;;;;;;7.80;5.60;;;;;;;27.78;49.14;100631.52;118618;1187;22072;-60
2022/08/08 05:26:56;;;;;;;8.10;5.80;;;;;;;27.93;49.18;100627.95;116866;1189;22652;-59
2022/08/08 05:29:24;;;;;;;6.60;5.60;;;;;;;28.09;49.02;100630.80;117001;1185;21860;-60
2022/08/08 05:31:55;;;;;;;8.10;6.00;;;;;;;28.27;48.85;100630.45;117019;1187;22749;-59
2022/08/08 05:34:45;;;;;;;6.90;5.30;;;;;;;28.43;48.77;100627.63;117029;1189;22177;-67
2022/08/08 05:37:16;;;;;;;9.10;5.30;;;;;;;28.58;48.75;100625.65;117060;1188;23659;-67
2022/08/08 05:39:48;;;;;;;7.60;5.90;;;;;;;28.75;48.65;100629.52;117052;1187;23956;-59
2022/08/08 05:42:15;;;;;;;7.50;6.00;;;;;;;28.91;48.36;100630.73;117208;1187;23554;-61
2022/08/08 05:44:49;;;;;;;10.70;5.90;;;;;;;29.03;48.15;100627.81;116934;1186;23483;-67
2022/08/08 05:47:17;;;;;;;7.00;5.60;;;;;;;29.18;47.93;100627.81;117115;1186;21872;-68
2022/08/08 05:49:48;;;;;;;8.30;5.60;;;;;;;29.38;47.88;100630.06;116871;1188;22105;-68
2022/08/08 05:52:22;;;;;;;6.50;5.60;;;;;;;29.54;47.40;100633.23;117013;1186;23484;-60
2022/08/08 05:55:10;;;;;;;8.40;5.60;;;;;;;29.70;47.43;100634.69;116791;1188;21865;-68
2022/08/08 05:57:41;;;;;;;8.10;5.50;;;;;;;29.93;47.24;100635.71;117093;1189;21858;-60
2022/08/08 06:00:31;;;;;;;8.70;5.60;;;;;;;30.17;46.72;100635.20;117109;1188;21852;-60
2022/08/08 06:03:09;;;;;;;6.60;4.70;;;;;;;30.36;46.57;100632.58;117071;1186;23666;-68
2022/08/08 06:05:57;;;;;;;9.10;5.40;;;;;;;30.54;46.27;100630.20;117081;1184;22925;-68
2022/08/08 06:08:36;;;;;;;6.80;5.10;;;;;;;30.67;45.99;100630.47;117027;1188;23678;-68
2022/08/08 06:11:04;;;;;;;7.20;5.30;;;;;;;30.80;45.82;100631.73;117125;1188;22937;-68
2022/08/08 06:13:31;;;;;;;8.90;5.30;;;;;;;30.97;45.97;100640.52;118019;1185;22911;-68
2022/08/08 06:16:13;;;;;;;6.00;4.80;;;;;;;31.11;45.50;100644.05;117081;1188;21864;-68
2022/08/08 06:18:40;;;;;;;7.50;5.70;;;;;;;31.30;45.32;100646.27;117290;1185;22928;-68
2022/08/08 06:21:09;;;;;;;6.90;4.50;;;;;;;31.56;45.25;100648.48;117030;1185;21867;-68
2022/08/08 06:23:56;;;;;;;6.20;4.40;;;;;;;31.85;44.91;100651.52;117113;1186;23451;-68
2022/08/08 06:26:42;;;;;;;13.40;5.00;;;;;;;32.47;43.69;100651.73;117006;1188;21867;-68
2022/08/08 06:29:29;;;;;;;7.20;4.20;;;;;;;32.31;44.07;100652.10;116990;1188;21878;-67
2022/08/08 06:32:16;;;;;;;9.90;5.10;;;;;;;32.44;44.07;100646.58;117132;1188;21858;-68
2022/08/08 06:34:46;;;;;;;7.80;4.80;;;;;;;32.67;43.65;100645.04;117038;1188;21957;-69
2022/08/08 06:37:23;;;;;;;15.00;5.10;;;;;;;32.88;43.68;100649.86;116964;1185;23721;-68
2022/08/08 06:39:51;;;;;;;9.30;4.70;;;;;;;33.15;43.56;100651.83;116989;1188;22943;-68
2022/08/08 06:42:24;;;;;;;9.70;4.60;;;;;;;33.40;43.21;100649.17;116972;1188;21879;-68
2022/08/08 06:44:54;;;;;;;5.90;4.10;;;;;;;33.62;42.84;100651.60;116910;1188;21863;-61
2022/08/08 06:47:22;;;;;;;10.20;3.70;;;;;;;33.81;42.40;100651.09;117176;1187;21857;-61
2022/08/08 06:49:59;;;;;;;9.00;4.00;;;;;;;34.00;42.20;100648.48;117133;1188;23542;-59
2022/08/08 06:52:30;;;;;;;5.00;3.70;;;;;;;34.16;41.85;100644.60;117042;1188;24013;-59
2022/08/08 06:54:59;;;;;;;7.90;4.20;;;;;;;34.38;41.63;100644.44;117028;1189;23646;-61
2022/08/08 06:57:27;;;;;;;5.30;3.70;;;;;;;34.57;41.34;100643.63;117151;1185;22633;-61
2022/08/08 07:00:15;;;;;;;5.80;3.80;;;;;;;34.81;41.16;100640.62;117156;1188;21854;-69
2022/08/08 07:02:57;;;;;;;5.60;3.90;;;;;;;35.06;40.97;100641.36;116907;1185;22094;-68
2022/08/08 07:05:25;;;;;;;5.80;3.70;;;;;;;35.25;40.47;100642.31;117035;1188;22103;-59
2022/08/08 07:08:11;;;;;;;5.40;3.80;;;;;;;35.47;40.22;100638.20;116878;1188;22255;-59
2022/08/08 07:10:47;;;;;;;6.90;3.60;;;;;;;35.70;39.77;100637.91;117093;1189;24721;-66
2022/08/08 07:13:17;;;;;;;6.50;3.90;;;;;;;35.88;39.68;100640.07;117030;1188;22099;-61
2022/08/08 07:16:03;;;;;;;6.60;3.40;;;;;;;36.07;39.33;100642.11;117018;1185;22918;-61
2022/08/08 07:18:47;;;;;;;6.20;3.60;;;;;;;36.19;39.10;100644.38;116836;1186;21867;-68
2022/08/08 07:21:17;;;;;;;4.70;3.50;;;;;;;36.38;38.99;100648.38;117059;1187;21863;-67
2022/08/08 07:23:58;;;;;;;5.70;3.60;;;;;;;36.50;38.65;100644.27;117023;1188;21976;-61
2022/08/08 07:26:32;;;;;;;6.80;3.60;;;;;;;36.67;38.05;100647.15;117319;1182;23563;-66
2022/08/08 07:29:02;;;;;;;6.60;3.20;;;;;;;36.76;37.92;100651.14;117022;1185;23466;-67
2022/08/08 07:31:34;;;;;;;4.20;3.20;;;;;;;36.91;37.84;100646.48;116924;1186;23456;-67
2022/08/08 07:34:03;;;;;;;7.10;3.10;;;;;;;37.17;37.64;100648.83;116976;1187;21861;-67
2022/08/08 07:36:36;;;;;;;7.60;2.80;;;;;;;37.42;37.33;100645.60;117008;1186;22956;-67
2022/08/08 07:39:22;;;;;;;5.40;3.20;;;;;;;37.71;37.05;100641.75;116939;1188;23859;-59
2022/08/08 07:42:10;;;;;;;7.70;3.20;;;;;;;37.97;36.67;100643.79;117067;1188;23555;-67
2022/08/08 07:44:40;;;;;;;6.60;3.40;;;;;;;38.08;36.51;100643.92;117107;1186;21894;-59
2022/08/08 07:47:09;;;;;;;6.80;3.40;;;;;;;38.27;36.24;100644.88;117152;1187;21854;-67
2022/08/08 07:49:38;;;;;;;6.10;3.70;;;;;;;38.40;36.00;100641.30;117048;1182;22417;-59
2022/08/08 07:52:11;;;;;;;13.90;8.20;;;;;;;38.51;35.61;100643.83;117240;1182;21830;-67
2022/08/08 07:54:49;;;;;;;10.60;8.20;;;;;;;38.65;35.20;100645.00;117014;1188;22002;-59
2022/08/08 07:57:39;;;;;;;10.50;4.50;;;;;;;38.81;35.14;100646.83;117122;1188;22725;-60
2022/08/08 08:00:15;;;;;;;5.70;3.30;;;;;;;38.96;34.88;100648.53;117004;1188;21854;-65
2022/08/08 08:02:51;;;;;;;5.10;2.90;;;;;;;39.11;34.72;100641.62;117057;1186;21878;-60
2022/08/08 08:05:23;;;;;;;7.10;2.90;;;;;;;39.32;34.38;100648.95;117132;1186;21952;-60
2022/08/08 08:08:06;;;;;;;5.60;2.60;;;;;;;39.48;34.08;100648.21;117057;1188;21919;-67
2022/08/08 08:10:34;;;;;;;11.00;2.50;;;;;;;39.69;34.05;100649.11;117027;1186;23455;-60
2022/08/08 08:13:21;;;;;;;9.80;2.30;;;;;;;39.88;34.03;100645.73;117119;1188;23454;-68
2022/08/08 08:16:18;;;;;;;6.80;2.50;;;;;;;40.20;33.78;100649.27;117186;1185;22653;-60
2022/08/08 08:18:47;;;;;;;11.90;2.70;;;;;;;40.52;33.06;100651.69;116997;1184;23584;-67
2022/08/08 08:21:25;;;;;;;8.90;2.90;;;;;;;40.69;32.68;100649.09;116967;1188;23065;-60
2022/08/08 08:24:12;;;;;;;5.60;2.50;;;;;;;40.87;32.31;100645.95;116863;1188;21901;-60
2022/08/08 08:26:41;;;;;;;6.70;2.40;;;;;;;41.05;32.51;100647.67;117036;1186;23330;-65
2022/08/08 08:29:18;;;;;;;13.10;3.10;;;;;;;41.14;31.82;100649.08;116989;1188;21918;-68
2022/08/08 08:31:46;;;;;;;8.00;2.60;;;;;;;41.12;31.77;100653.02;116854;1189;21848;-60
2022/08/08 08:34:24;;;;;;;10.80;2.60;;;;;;;41.13;31.60;100651.75;117036;1189;23525;-67
2022/08/08 08:37:00;;;;;;;7.30;2.50;;;;;;;41.20;31.64;100657.60;117009;1188;22023;-67
2022/08/08 08:39:36;;;;;;;4.70;2.30;;;;;;;41.37;31.43;100653.95;116965;1188;21857;-69
2022/08/08 08:42:23;;;;;;;5.90;2.10;;;;;;;41.61;30.85;100648.41;117013;1185;23557;-62
2022/08/08 08:45:06;;;;;;;8.30;2.60;;;;;;;41.75;30.45;100646.27;116891;1187;21858;-69
2022/08/08 08:47:52;;;;;;;6.60;2.30;;;;;;;41.81;30.51;100648.32;116974;1185;22039;-68
2022/08/08 08:50:21;;;;;;;6.50;2.20;;;;;;;41.95;30.18;100645.88;117007;1188;21856;-69
2022/08/08 08:53:01;;;;;;;;;;;;;;;42.07;29.98;100648.67;117029;1182;22918;-68
2022/08/08 08:55:32;;;;;;;4.60;2.40;;;;;;;42.14;30.06;100646.24;117047;1188;21874;-69
2022/08/08 08:58:07;;;;;;;5.10;2.30;;;;;;;42.29;29.62;100645.55;116943;1183;21851;-69
2022/08/08 09:00:37;;;;;;;6.20;2.50;;;;;;;42.52;29.45;100645.27;117049;1185;22949;-61
2022/08/08 09:03:26;;;;;;;6.30;2.50;;;;;;;42.77;29.36;100642.98;119081;1187;22689;-62
2022/08/08 09:06:26;;;;;;;6.50;2.10;;;;;;;43.05;29.02;100638.86;118987;1187;21782;-62
2022/08/08 09:09:05;;;;;;;3.70;1.80;;;;;;;43.25;28.63;100637.63;118875;1188;21869;-62
2022/08/08 09:11:45;;;;;;;6.80;2.20;;;;;;;43.52;28.36;100631.61;117184;1186;21858;-69
2022/08/08 09:14:28;;;;;;;4.50;2.20;;;;;;;43.74;28.02;100628.40;117082;1188;22697;-61
2022/08/08 09:16:55;;;;;;;9.50;1.70;;;;;;;43.99;27.48;100637.09;116975;1189;21869;-68
2022/08/08 09:19:24;;;;;;;5.90;1.40;;;;;;;44.10;26.97;100639.58;117112;1188;22085;-62
2022/08/08 09:22:11;;;;;;;3.60;1.50;;;;;;;44.17;26.46;100636.64;116856;1186;23467;-69
2022/08/08 09:24:45;;;;;;;4.40;1.60;;;;;;;44.10;25.08;100630.83;116896;1189;22308;-68
2022/08/08 09:27:12;;;;;;;3.20;1.90;;;;;;;44.04;25.49;100634.14;117026;1188;21855;-62
2022/08/08 09:30:08;;;;;;;6.00;1.60;;;;;;;44.23;25.88;100633.59;116884;1183;23659;-69
2022/08/08 09:32:51;;;;;;;2.90;1.70;;;;;;;44.48;25.57;100635.02;116956;1188;22945;-61
2022/08/08 09:35:38;;;;;;;4.20;1.50;;;;;;;44.65;25.51;100634.02;116995;1187;22025;-61
2022/08/08 09:38:37;;;;;;;4.60;1.40;;;;;;;44.79;25.24;100630.98;116837;1187;21975;-62
2022/08/08 09:41:32;;;;;;;5.00;1.60;;;;;;;44.97;24.63;100631.50;117065;1184;22623;-69
2022/08/08 09:44:23;;;;;;;6.40;1.30;;;;;;;45.09;24.85;100635.31;116948;1185;21910;-62
2022/08/08 09:47:04;;;;;;;7.10;1.80;;;;;;;45.21;24.78;100631.02;117036;1188;21970;-68
2022/08/08 09:49:51;;;;;;;6.90;1.90;;;;;;;45.28;24.41;100634.73;117570;1187;24181;-62
2022/08/08 09:52:22;;;;;;;3.50;1.70;;;;;;;45.30;24.22;100628.35;116903;1187;22928;-69
2022/08/08 09:55:10;;;;;;;;;;;;;;;45.43;23.29;100619.89;116994;1188;22931;-62
2022/08/08 09:57:51;;;;;;;3.10;1.50;;;;;;;45.58;23.70;100622.27;117048;1188;21941;-62
2022/08/08 10:00:23;;;;;;;4.30;1.40;;;;;;;45.77;23.55;100613.64;116918;1188;23039;-69
2022/08/08 10:03:13;;;;;;;3.90;1.60;;;;;;;45.87;23.38;100614.61;116911;1185;22629;-62
2022/08/08 10:05:45;;;;;;;4.60;1.70;;;;;;;45.88;23.12;100615.41;116946;1188;22052;-68
2022/08/08 10:08:15;;;;;;;3.30;1.80;;;;;;;45.90;23.08;100613.00;116880;1186;22909;-69
2022/08/08 10:10:43;;;;;;;5.80;1.80;;;;;;;45.94;22.94;100615.78;117166;1186;23655;-69
2022/08/08 10:13:25;;;;;;;5.30;1.60;;;;;;;45.94;22.86;100614.44;116975;1187;22928;-69
2022/08/08 10:16:01;;;;;;;5.10;1.70;;;;;;;45.94;22.77;100613.67;117007;1186;21858;-62
2022/08/08 10:18:35;;;;;;;3.40;1.80;;;;;;;45.95;22.71;100611.86;117038;1187;21866;-69
2022/08/08 10:21:09;;;;;;;3.30;1.60;;;;;;;45.88;22.36;100611.89;117118;1186;21874;-69
2022/08/08 10:24:01;;;;;;;3.50;1.70;;;;;;;45.78;22.60;100607.19;117087;1185;21874;-67
2022/08/08 10:26:39;;;;;;;2.50;1.80;;;;;;;45.72;22.36;100606.31;117142;1187;21858;-68
2022/08/08 10:29:39;;;;;;;4.80;2.10;;;;;;;45.71;22.40;100607.52;119158;1186;21770;-63
2022/08/08 10:32:36;;;;;;;5.40;1.60;;;;;;;45.72;22.41;100605.65;118890;1187;23557;-63
2022/08/08 10:35:15;;;;;;;5.00;2.00;;;;;;;45.77;22.32;100602.79;117085;1185;23554;-70
2022/08/08 10:38:04;;;;;;;4.00;1.70;;;;;;;45.82;22.26;100598.77;117325;1187;21849;-69
2022/08/08 10:40:36;;;;;;;3.60;1.60;;;;;;;45.93;22.12;100588.31;118186;1186;23585;-69
2022/08/08 10:43:05;;;;;;;2.70;1.80;;;;;;;46.08;22.08;100590.30;118193;1187;21870;-69
2022/08/08 10:45:43;;;;;;;8.30;1.70;;;;;;;46.20;22.03;100592.97;117071;1187;22813;-69
2022/08/08 10:48:32;;;;;;;2.80;1.60;;;;;;;46.34;21.83;100584.86;117021;1183;23019;-63
2022/08/08 10:51:23;;;;;;;3.90;1.50;;;;;;;46.55;21.45;100587.20;117033;1188;21858;-62
2022/08/08 10:53:54;;;;;;;5.20;1.80;;;;;;;46.60;21.43;100586.44;116985;1187;22941;-62
2022/08/08 10:56:25;;;;;;;3.00;1.60;;;;;;;46.42;21.19;100588.95;117033;1185;22200;-62
2022/08/08 10:59:06;;;;;;;5.40;1.70;;;;;;;46.29;21.41;100587.23;117010;1188;21960;-70
2022/08/08 11:01:35;;;;;;;5.10;1.50;;;;;;;46.25;21.15;100578.86;117127;1184;22621;-63
2022/08/08 11:04:09;;;;;;;3.40;2.00;;;;;;;46.25;20.46;100575.20;117040;1185;22908;-63
2022/08/08 11:06:38;;;;;;;3.80;1.80;;;;;;;46.20;20.78;100568.70;117087;1188;22841;-69
2022/08/08 11:09:15;;;;;;;2.40;1.50;;;;;;;46.18;20.84;100575.68;117032;1187;21969;-62
2022/08/08 11:11:50;;;;;;;5.20;1.50;;;;;;;46.19;20.78;100572.58;117108;1191;23386;-68
2022/08/08 11:14:56;;;;;;;3.20;1.40;;;;;;;46.25;20.80;100567.11;117008;1187;21897;-68
2022/08/08 11:17:30;;;;;;;4.00;1.40;;;;;;;46.33;20.59;100564.02;117035;1183;21860;-68
2022/08/08 11:20:23;;;;;;;2.20;1.60;;;;;;;46.35;20.34;100564.56;117006;1185;22325;-69
2022/08/08 11:23:01;;;;;;;4.60;1.60;;;;;;;46.27;20.18;100563.54;117010;1184;23367;-69
2022/08/08 11:25:32;;;;;;;6.80;3.90;;;;;;;46.13;19.82;100558.36;117000;1184;22728;-68
2022/08/08 11:28:24;;;;;;;4.30;2.00;;;;;;;46.09;19.99;100552.85;117017;1188;22928;-68
2022/08/08 11:30:59;;;;;;;4.60;1.90;;;;;;;46.20;19.66;100550.55;117030;1186;22931;-62
2022/08/08 11:33:32;;;;;;;2.60;1.50;;;;;;;46.09;19.43;100554.92;116990;1188;22633;-68
2022/08/08 11:36:19;;;;;;;;;;;;;;;45.92;19.55;100552.20;117042;1186;21846;-62
2022/08/08 11:38:46;;;;;;;5.70;1.40;;;;;;;45.94;19.88;100550.62;117045;1185;22924;-68
2022/08/08 11:41:25;;;;;;;2.60;1.50;;;;;;;46.08;20.00;100554.31;117117;1188;22172;-69
2022/08/08 11:44:00;;;;;;;3.50;1.50;;;;;;;46.30;19.99;100548.45;117045;1187;21887;-63
2022/08/08 11:46:30;;;;;;;5.00;1.70;;;;;;;46.55;19.76;100545.56;117029;1188;21880;-69
2022/08/08 11:49:10;;;;;;;3.60;1.30;;;;;;;46.71;19.49;100543.34;118040;1188;22932;-64
2022/08/08 11:51:43;;;;;;;6.00;2.40;;;;;;;46.89;18.71;100541.77;116883;1187;21904;-68
2022/08/08 11:54:32;;;;;;;5.30;1.70;;;;;;;47.01;18.27;100535.31;116813;1189;21861;-62
2022/08/08 11:57:17;;;;;;;4.40;1.70;;;;;;;47.07;18.80;100532.69;116936;1188;21848;-63
2022/08/08 11:59:55;;;;;;;7.30;1.80;;;;;;;47.10;18.52;100528.16;116977;1184;23043;-62
2022/08/08 12:02:45;;;;;;;4.70;1.30;;;;;;;47.14;18.67;100524.44;116989;1188;23455;-63
2022/08/08 12:05:15;;;;;;;2.50;1.60;;;;;;;47.15;18.35;100523.16;116937;1188;21945;-62
2022/08/08 12:07:52;;;;;;;4.10;1.60;;;;;;;47.16;18.23;100525.06;116980;1188;21900;-68
2022/08/08 12:10:24;;;;;;;3.60;1.70;;;;;;;47.20;18.41;100531.20;116928;1191;22954;-63
2022/08/08 12:13:02;;;;;;;;;;;;;;;47.21;18.47;100527.21;116883;1189;21866;-69
2022/08/08 12:15:48;;;;;;;4.50;1.70;;;;;;;47.16;18.38;100524.57;116981;1188;22931;-67
2022/08/08 12:18:24;;;;;;;2.30;1.60;;;;;;;47.17;18.35;100524.96;116928;1188;23620;-63
2022/08/08 12:20:53;;;;;;;2.60;1.70;;;;;;;47.00;17.80;100523.37;117022;1190;21993;-70
2022/08/08 12:23:34;;;;;;;5.90;1.80;;;;;;;46.81;18.33;100518.46;116898;1188;21859;-70
2022/08/08 12:26:19;;;;;;;3.50;1.40;;;;;;;46.77;18.27;100519.04;116994;1188;22108;-70